sensor_id;sensor_type;location;lat;lon;timestamp;P1;durP1;ratioP1;P2;durP2;ratioP2
64018;SDS011;66942;52.138;5.216;2024-01-15T00:00:23;8.71;;;2.1;;
64018;SDS011;66942;52.138;5.216;2024-01-15T00:03:36;10.1;;;2.5;;
64018;SDS011;66942;52.138;5.216;2024-01-15T00:05:12;6.5;;;2.0;;
64018;SDS011;66942;52.138;5.216;2024-01-15T00:10:02;15.9;;;3.3;;
64018;SDS011;66942;52.138;5.216;2024-01-15T00:11:39;10.5;;;3.0;;
64018;SDS011;66942;52.138;5.216;2024-01-15T00:13:16;11.7;;;2.7;;
64018;SDS011;66942;52.138;5.216;2024-01-15T00:16:29;11.3;;;2.6;;
64018;SDS011;66942;52.138;5.216;2024-01-15T00:18:06;8.5;;;2.1;;
64018;SDS011;66942;52.138;5.216;2024-01-15T00:19:42;9.81;;;2.4;;
64018;SDS011;66942;52.138;5.216;2024-01-15T00:21:18;9.5;;;2.21;;
64018;SDS011;66942;52.138;5.216;2024-01-15T00:26:08;9.1;;;2.21;;
64018;SDS011;66942;52.138;5.216;2024-01-15T00:27:44;9.81;;;2.8;;
64018;SDS011;66942;52.138;5.216;2024-01-15T00:30:57;9.71;;;2.4;;
64018;SDS011;66942;52.138;5.216;2024-01-15T00:32:34;9.21;;;2.4;;
64018;SDS011;66942;52.138;5.216;2024-01-15T00:34:10;10.7;;;2.1;;
64018;SDS011;66942;52.138;5.216;2024-01-15T00:37:22;10.8;;;2.7;;
64018;SDS011;66942;52.138;5.216;2024-01-15T00:38:58;8.9;;;2.31;;
64018;SDS011;66942;52.138;5.216;2024-01-15T00:40:36;14.0;;;2.9;;
64018;SDS011;66942;52.138;5.216;2024-01-15T00:43:50;13.1;;;3.2;;
64018;SDS011;66942;52.138;5.216;2024-01-15T00:48:39;14.1;;;3.1;;
64018;SDS011;66942;52.138;5.216;2024-01-15T00:51:53;8.5;;;2.31;;
64018;SDS011;66942;52.138;5.216;2024-01-15T00:53:30;10.9;;;3.0;;
64018;SDS011;66942;52.138;5.216;2024-01-15T00:55:07;10.4;;;2.7;;
64018;SDS011;66942;52.138;5.216;2024-01-15T00:58:19;13.3;;;2.5;;
64018;SDS011;66942;52.138;5.216;2024-01-15T00:59:55;11.2;;;2.7;;
64018;SDS011;66942;52.138;5.216;2024-01-15T01:01:31;9.9;;;2.8;;
64018;SDS011;66942;52.138;5.216;2024-01-15T01:04:45;11.5;;;2.9;;
64018;SDS011;66942;52.138;5.216;2024-01-15T01:06:21;10.7;;;3.0;;
64018;SDS011;66942;52.138;5.216;2024-01-15T01:07:57;12.1;;;2.6;;
64018;SDS011;66942;52.138;5.216;2024-01-15T01:09:34;15.7;;;3.2;;
64018;SDS011;66942;52.138;5.216;2024-01-15T01:12:48;11.8;;;2.9;;
64018;SDS011;66942;52.138;5.216;2024-01-15T01:14:24;11.7;;;3.3;;
64018;SDS011;66942;52.138;5.216;2024-01-15T01:16:01;13.9;;;3.2;;
64018;SDS011;66942;52.138;5.216;2024-01-15T01:19:15;9.1;;;2.7;;
64018;SDS011;66942;52.138;5.216;2024-01-15T01:20:51;15.1;;;3.6;;
64018;SDS011;66942;52.138;5.216;2024-01-15T01:22:28;12.7;;;2.9;;
64018;SDS011;66942;52.138;5.216;2024-01-15T01:24:04;11.7;;;2.9;;
64018;SDS011;66942;52.138;5.216;2024-01-15T01:27:17;15.3;;;3.2;;
64018;SDS011;66942;52.138;5.216;2024-01-15T01:28:53;15.4;;;3.1;;
64018;SDS011;66942;52.138;5.216;2024-01-15T01:30:30;14.0;;;2.8;;
64018;SDS011;66942;52.138;5.216;2024-01-15T01:33:42;16.3;;;2.9;;
64018;SDS011;66942;52.138;5.216;2024-01-15T01:35:19;13.5;;;3.1;;
64018;SDS011;66942;52.138;5.216;2024-01-15T01:36:58;15.4;;;3.1;;
64018;SDS011;66942;52.138;5.216;2024-01-15T01:40:10;10.8;;;3.2;;
64018;SDS011;66942;52.138;5.216;2024-01-15T01:41:47;13.7;;;3.1;;
64018;SDS011;66942;52.138;5.216;2024-01-15T01:43:24;12.2;;;3.4;;
64018;SDS011;66942;52.138;5.216;2024-01-15T01:45:00;10.8;;;2.9;;
64018;SDS011;66942;52.138;5.216;2024-01-15T01:48:13;13.0;;;3.4;;
64018;SDS011;66942;52.138;5.216;2024-01-15T01:49:49;12.4;;;2.5;;
64018;SDS011;66942;52.138;5.216;2024-01-15T01:51:26;12.6;;;2.7;;
64018;SDS011;66942;52.138;5.216;2024-01-15T01:54:40;10.0;;;2.4;;
64018;SDS011;66942;52.138;5.216;2024-01-15T01:56:17;11.2;;;2.5;;
64018;SDS011;66942;52.138;5.216;2024-01-15T01:57:54;13.1;;;2.9;;
64018;SDS011;66942;52.138;5.216;2024-01-15T02:01:10;10.3;;;2.5;;
64018;SDS011;66942;52.138;5.216;2024-01-15T02:02:48;10.9;;;3.1;;
64018;SDS011;66942;52.138;5.216;2024-01-15T02:04:25;13.8;;;3.0;;
64018;SDS011;66942;52.138;5.216;2024-01-15T02:06:03;12.3;;;2.9;;
64018;SDS011;66942;52.138;5.216;2024-01-15T02:09:17;9.21;;;2.5;;
64018;SDS011;66942;52.138;5.216;2024-01-15T02:10:54;9.6;;;2.4;;
64018;SDS011;66942;52.138;5.216;2024-01-15T02:12:30;9.71;;;2.1;;
64018;SDS011;66942;52.138;5.216;2024-01-15T02:15:45;10.8;;;2.31;;
64018;SDS011;66942;52.138;5.216;2024-01-15T02:17:22;9.9;;;2.5;;
64018;SDS011;66942;52.138;5.216;2024-01-15T02:18:58;3.5;;;1.3;;
64018;SDS011;66942;52.138;5.216;2024-01-15T02:20:35;5.8;;;1.5;;
64018;SDS011;66942;52.138;5.216;2024-01-15T02:23:48;4.41;;;0.7;;
64018;SDS011;66942;52.138;5.216;2024-01-15T02:25:25;2.4;;;0.8;;
64018;SDS011;66942;52.138;5.216;2024-01-15T02:27:02;2.1;;;0.6;;
64018;SDS011;66942;52.138;5.216;2024-01-15T02:30:15;2.4;;;0.5;;
64018;SDS011;66942;52.138;5.216;2024-01-15T02:31:52;2.5;;;0.5;;
64018;SDS011;66942;52.138;5.216;2024-01-15T02:33:28;2.5;;;0.8;;
64018;SDS011;66942;52.138;5.216;2024-01-15T02:36:42;3.8;;;0.7;;
64018;SDS011;66942;52.138;5.216;2024-01-15T02:38:18;3.4;;;1.0;;
64018;SDS011;66942;52.138;5.216;2024-01-15T02:39:55;3.9;;;1.0;;
64018;SDS011;66942;52.138;5.216;2024-01-15T02:41:32;4.3;;;1.0;;
64018;SDS011;66942;52.138;5.216;2024-01-15T02:44:44;4.2;;;1.0;;
64018;SDS011;66942;52.138;5.216;2024-01-15T02:46:20;4.3;;;1.11;;
64018;SDS011;66942;52.138;5.216;2024-01-15T02:47:57;5.0;;;1.3;;
64018;SDS011;66942;52.138;5.216;2024-01-15T02:51:10;6.0;;;1.5;;
64018;SDS011;66942;52.138;5.216;2024-01-15T02:52:46;6.5;;;1.3;;
64018;SDS011;66942;52.138;5.216;2024-01-15T02:54:22;4.41;;;1.2;;
64018;SDS011;66942;52.138;5.216;2024-01-15T02:57:35;6.6;;;1.6;;
64018;SDS011;66942;52.138;5.216;2024-01-15T02:59:11;5.4;;;1.5;;
64018;SDS011;66942;52.138;5.216;2024-01-15T03:00:47;8.1;;;1.7;;
64018;SDS011;66942;52.138;5.216;2024-01-15T03:02:23;5.8;;;1.6;;
64018;SDS011;66942;52.138;5.216;2024-01-15T03:05:36;9.1;;;1.6;;
64018;SDS011;66942;52.138;5.216;2024-01-15T03:07:16;7.7;;;1.5;;
64018;SDS011;66942;52.138;5.216;2024-01-15T03:08:53;5.8;;;1.7;;
64018;SDS011;66942;52.138;5.216;2024-01-15T03:12:06;5.3;;;1.2;;
64018;SDS011;66942;52.138;5.216;2024-01-15T03:13:43;6.4;;;1.7;;
64018;SDS011;66942;52.138;5.216;2024-01-15T03:15:19;6.8;;;1.6;;
64018;SDS011;66942;52.138;5.216;2024-01-15T03:18:35;4.91;;;1.6;;
64018;SDS011;66942;52.138;5.216;2024-01-15T03:20:11;7.0;;;1.6;;
64018;SDS011;66942;52.138;5.216;2024-01-15T03:21:48;6.9;;;1.7;;
64018;SDS011;66942;52.138;5.216;2024-01-15T03:23:25;6.0;;;1.6;;
64018;SDS011;66942;52.138;5.216;2024-01-15T03:26:38;7.6;;;2.0;;
64018;SDS011;66942;52.138;5.216;2024-01-15T03:28:15;8.31;;;1.9;;
64018;SDS011;66942;52.138;5.216;2024-01-15T03:29:51;9.4;;;1.9;;
64018;SDS011;66942;52.138;5.216;2024-01-15T03:33:04;8.0;;;1.8;;
64018;SDS011;66942;52.138;5.216;2024-01-15T03:34:40;7.1;;;1.8;;
64018;SDS011;66942;52.138;5.216;2024-01-15T03:36:16;7.7;;;1.6;;
64018;SDS011;66942;52.138;5.216;2024-01-15T03:39:29;8.31;;;1.8;;
64018;SDS011;66942;52.138;5.216;2024-01-15T03:41:05;7.3;;;1.5;;
64018;SDS011;66942;52.138;5.216;2024-01-15T03:42:41;6.1;;;1.9;;
64018;SDS011;66942;52.138;5.216;2024-01-15T03:44:17;7.8;;;1.8;;
64018;SDS011;66942;52.138;5.216;2024-01-15T03:47:30;5.6;;;1.5;;
64018;SDS011;66942;52.138;5.216;2024-01-15T03:49:07;4.8;;;1.4;;
64018;SDS011;66942;52.138;5.216;2024-01-15T03:50:44;7.9;;;1.6;;
64018;SDS011;66942;52.138;5.216;2024-01-15T03:53:59;6.8;;;1.5;;
64018;SDS011;66942;52.138;5.216;2024-01-15T03:55:37;8.1;;;1.7;;
64018;SDS011;66942;52.138;5.216;2024-01-15T03:57:13;8.9;;;1.4;;
64018;SDS011;66942;52.138;5.216;2024-01-15T04:00:25;6.4;;;1.6;;
64018;SDS011;66942;52.138;5.216;2024-01-15T04:02:01;5.0;;;1.3;;
64018;SDS011;66942;52.138;5.216;2024-01-15T04:03:37;5.0;;;1.3;;
64018;SDS011;66942;52.138;5.216;2024-01-15T04:05:13;5.0;;;1.5;;
64018;SDS011;66942;52.138;5.216;2024-01-15T04:08:26;8.2;;;1.4;;
64018;SDS011;66942;52.138;5.216;2024-01-15T04:10:02;5.7;;;1.6;;
64018;SDS011;66942;52.138;5.216;2024-01-15T04:11:40;6.8;;;1.8;;
64018;SDS011;66942;52.138;5.216;2024-01-15T04:14:52;7.4;;;1.4;;
64018;SDS011;66942;52.138;5.216;2024-01-15T04:16:28;9.4;;;2.0;;
64018;SDS011;66942;52.138;5.216;2024-01-15T04:18:04;7.1;;;1.5;;
64018;SDS011;66942;52.138;5.216;2024-01-15T04:21:19;4.1;;;1.2;;
64018;SDS011;66942;52.138;5.216;2024-01-15T04:22:55;6.9;;;1.5;;
64018;SDS011;66942;52.138;5.216;2024-01-15T04:24:31;12.4;;;2.1;;
64018;SDS011;66942;52.138;5.216;2024-01-15T04:26:08;6.8;;;1.4;;
64018;SDS011;66942;52.138;5.216;2024-01-15T04:29:21;7.1;;;1.6;;
64018;SDS011;66942;52.138;5.216;2024-01-15T04:30:57;6.9;;;1.5;;
64018;SDS011;66942;52.138;5.216;2024-01-15T04:32:33;9.9;;;1.8;;
64018;SDS011;66942;52.138;5.216;2024-01-15T04:35:45;12.1;;;1.7;;
64018;SDS011;66942;52.138;5.216;2024-01-15T04:37:21;12.9;;;2.0;;
64018;SDS011;66942;52.138;5.216;2024-01-15T04:38:57;11.4;;;2.21;;
64018;SDS011;66942;52.138;5.216;2024-01-15T04:42:09;7.7;;;1.8;;
64018;SDS011;66942;52.138;5.216;2024-01-15T04:43:46;5.9;;;1.4;;
64018;SDS011;66942;52.138;5.216;2024-01-15T04:45:23;4.91;;;1.3;;
64018;SDS011;66942;52.138;5.216;2024-01-15T04:47:00;4.41;;;1.3;;
64018;SDS011;66942;52.138;5.216;2024-01-15T04:50:12;4.41;;;1.3;;
64018;SDS011;66942;52.138;5.216;2024-01-15T04:51:48;4.7;;;1.4;;
64018;SDS011;66942;52.138;5.216;2024-01-15T04:53:24;6.4;;;1.5;;
64018;SDS011;66942;52.138;5.216;2024-01-15T04:56:38;6.6;;;1.4;;
64018;SDS011;66942;52.138;5.216;2024-01-15T04:58:14;6.8;;;1.5;;
64018;SDS011;66942;52.138;5.216;2024-01-15T04:59:51;4.91;;;1.7;;
64018;SDS011;66942;52.138;5.216;2024-01-15T05:03:07;7.3;;;1.6;;
64018;SDS011;66942;52.138;5.216;2024-01-15T05:04:44;10.0;;;1.8;;
64018;SDS011;66942;52.138;5.216;2024-01-15T05:06:20;8.6;;;2.0;;
64018;SDS011;66942;52.138;5.216;2024-01-15T05:07:56;6.2;;;1.6;;
64018;SDS011;66942;52.138;5.216;2024-01-15T05:11:08;7.8;;;1.8;;
64018;SDS011;66942;52.138;5.216;2024-01-15T05:12:44;8.71;;;1.6;;
64018;SDS011;66942;52.138;5.216;2024-01-15T05:14:21;8.4;;;1.9;;
64018;SDS011;66942;52.138;5.216;2024-01-15T05:17:35;9.81;;;1.9;;
64018;SDS011;66942;52.138;5.216;2024-01-15T05:19:11;8.31;;;1.7;;
64018;SDS011;66942;52.138;5.216;2024-01-15T05:20:47;12.6;;;1.7;;
64018;SDS011;66942;52.138;5.216;2024-01-15T05:24:00;9.6;;;2.0;;
64018;SDS011;66942;52.138;5.216;2024-01-15T05:25:36;6.8;;;1.5;;
64018;SDS011;66942;52.138;5.216;2024-01-15T05:27:13;7.0;;;1.6;;
64018;SDS011;66942;52.138;5.216;2024-01-15T05:28:50;6.0;;;1.8;;
64018;SDS011;66942;52.138;5.216;2024-01-15T05:32:03;9.0;;;1.8;;
64018;SDS011;66942;52.138;5.216;2024-01-15T05:33:40;9.0;;;1.8;;
64018;SDS011;66942;52.138;5.216;2024-01-15T05:35:17;6.7;;;1.5;;
64018;SDS011;66942;52.138;5.216;2024-01-15T05:38:31;7.1;;;1.7;;
64018;SDS011;66942;52.138;5.216;2024-01-15T05:40:07;7.8;;;1.8;;
64018;SDS011;66942;52.138;5.216;2024-01-15T05:41:45;9.9;;;1.9;;
64018;SDS011;66942;52.138;5.216;2024-01-15T05:44:58;8.6;;;1.4;;
64018;SDS011;66942;52.138;5.216;2024-01-15T05:46:35;5.7;;;1.6;;
64018;SDS011;66942;52.138;5.216;2024-01-15T05:48:11;9.21;;;1.9;;
64018;SDS011;66942;52.138;5.216;2024-01-15T05:49:48;10.3;;;2.0;;
64018;SDS011;66942;52.138;5.216;2024-01-15T05:53:01;8.6;;;2.1;;
64018;SDS011;66942;52.138;5.216;2024-01-15T05:54:37;9.21;;;2.0;;
64018;SDS011;66942;52.138;5.216;2024-01-15T05:56:14;9.71;;;2.5;;
64018;SDS011;66942;52.138;5.216;2024-01-15T05:59:33;5.9;;;2.8;;
64018;SDS011;66942;52.138;5.216;2024-01-15T06:01:09;8.9;;;2.9;;
64018;SDS011;66942;52.138;5.216;2024-01-15T06:02:46;10.4;;;2.5;;
64018;SDS011;66942;52.138;5.216;2024-01-15T06:06:00;7.7;;;2.9;;
64018;SDS011;66942;52.138;5.216;2024-01-15T06:07:45;6.0;;;2.1;;
64018;SDS011;66942;52.138;5.216;2024-01-15T06:09:22;6.2;;;1.7;;
64018;SDS011;66942;52.138;5.216;2024-01-15T06:10:58;6.7;;;1.8;;
64018;SDS011;66942;52.138;5.216;2024-01-15T06:14:11;6.1;;;1.6;;
64018;SDS011;66942;52.138;5.216;2024-01-15T06:15:47;9.9;;;1.9;;
64018;SDS011;66942;52.138;5.216;2024-01-15T06:17:23;8.6;;;2.4;;
64018;SDS011;66942;52.138;5.216;2024-01-15T06:20:35;6.5;;;1.8;;
64018;SDS011;66942;52.138;5.216;2024-01-15T06:22:12;10.5;;;2.0;;
64018;SDS011;66942;52.138;5.216;2024-01-15T06:23:49;9.6;;;2.1;;
64018;SDS011;66942;52.138;5.216;2024-01-15T06:25:25;6.5;;;1.6;;
64018;SDS011;66942;52.138;5.216;2024-01-15T06:28:37;7.0;;;2.0;;
64018;SDS011;66942;52.138;5.216;2024-01-15T06:30:14;5.3;;;1.4;;
64018;SDS011;66942;52.138;5.216;2024-01-15T06:31:50;7.8;;;1.7;;
64018;SDS011;66942;52.138;5.216;2024-01-15T06:35:04;7.0;;;1.6;;
64018;SDS011;66942;52.138;5.216;2024-01-15T06:36:41;8.9;;;1.5;;
64018;SDS011;66942;52.138;5.216;2024-01-15T06:38:18;7.4;;;1.5;;
64018;SDS011;66942;52.138;5.216;2024-01-15T06:41:31;3.9;;;1.7;;
64018;SDS011;66942;52.138;5.216;2024-01-15T06:43:07;4.3;;;1.5;;
64018;SDS011;66942;52.138;5.216;2024-01-15T06:44:44;6.3;;;1.6;;
64018;SDS011;66942;52.138;5.216;2024-01-15T06:46:20;4.3;;;1.6;;
64018;SDS011;66942;52.138;5.216;2024-01-15T06:49:35;6.1;;;1.8;;
64018;SDS011;66942;52.138;5.216;2024-01-15T06:51:12;9.31;;;2.21;;
64018;SDS011;66942;52.138;5.216;2024-01-15T06:52:53;10.1;;;2.5;;
64018;SDS011;66942;52.138;5.216;2024-01-15T06:56:08;6.9;;;1.9;;
64018;SDS011;66942;52.138;5.216;2024-01-15T06:57:45;4.5;;;1.9;;
64018;SDS011;66942;52.138;5.216;2024-01-15T06:59:22;6.2;;;1.8;;
64018;SDS011;66942;52.138;5.216;2024-01-15T07:00:59;11.0;;;2.5;;
64018;SDS011;66942;52.138;5.216;2024-01-15T07:04:12;6.1;;;1.9;;
64018;SDS011;66942;52.138;5.216;2024-01-15T07:05:48;8.9;;;2.1;;
64018;SDS011;66942;52.138;5.216;2024-01-15T07:07:26;5.4;;;1.9;;
64018;SDS011;66942;52.138;5.216;2024-01-15T07:10:39;6.3;;;2.0;;
64018;SDS011;66942;52.138;5.216;2024-01-15T07:12:16;5.11;;;1.5;;
64018;SDS011;66942;52.138;5.216;2024-01-15T07:13:52;5.9;;;1.6;;
64018;SDS011;66942;52.138;5.216;2024-01-15T07:17:08;5.5;;;2.0;;
64018;SDS011;66942;52.138;5.216;2024-01-15T07:18:45;4.41;;;1.7;;
64018;SDS011;66942;52.138;5.216;2024-01-15T07:20:22;6.3;;;2.6;;
64018;SDS011;66942;52.138;5.216;2024-01-15T07:22:00;10.5;;;2.9;;
64018;SDS011;66942;52.138;5.216;2024-01-15T07:25:12;5.8;;;1.9;;
64018;SDS011;66942;52.138;5.216;2024-01-15T07:26:53;5.8;;;1.9;;
64018;SDS011;66942;52.138;5.216;2024-01-15T07:28:34;5.8;;;2.5;;
64018;SDS011;66942;52.138;5.216;2024-01-15T07:30:11;7.0;;;3.3;;
64018;SDS011;66942;52.138;5.216;2024-01-15T07:33:26;9.71;;;2.9;;
64018;SDS011;66942;52.138;5.216;2024-01-15T07:35:03;12.0;;;3.9;;
64018;SDS011;66942;52.138;5.216;2024-01-15T07:36:40;7.0;;;3.8;;
64018;SDS011;66942;52.138;5.216;2024-01-15T07:39:57;12.0;;;3.6;;
64018;SDS011;66942;52.138;5.216;2024-01-15T07:41:33;11.3;;;3.6;;
64018;SDS011;66942;52.138;5.216;2024-01-15T07:43:10;12.4;;;3.4;;
64018;SDS011;66942;52.138;5.216;2024-01-15T07:46:24;11.2;;;4.2;;
64018;SDS011;66942;52.138;5.216;2024-01-15T07:48:00;11.6;;;3.8;;
64018;SDS011;66942;52.138;5.216;2024-01-15T07:49:36;8.71;;;3.5;;
64018;SDS011;66942;52.138;5.216;2024-01-15T07:51:16;9.5;;;4.1;;
64018;SDS011;66942;52.138;5.216;2024-01-15T07:54:29;9.5;;;4.1;;
64018;SDS011;66942;52.138;5.216;2024-01-15T07:56:05;10.6;;;4.7;;
64018;SDS011;66942;52.138;5.216;2024-01-15T07:57:42;9.1;;;5.11;;
64018;SDS011;66942;52.138;5.216;2024-01-15T08:00:54;7.7;;;3.4;;
64018;SDS011;66942;52.138;5.216;2024-01-15T08:02:30;10.0;;;4.3;;
64018;SDS011;66942;52.138;5.216;2024-01-15T08:04:08;9.1;;;3.9;;
64018;SDS011;66942;52.138;5.216;2024-01-15T08:05:45;9.71;;;4.1;;
64018;SDS011;66942;52.138;5.216;2024-01-15T08:08:59;9.1;;;4.41;;
64018;SDS011;66942;52.138;5.216;2024-01-15T08:10:35;9.1;;;3.8;;
64018;SDS011;66942;52.138;5.216;2024-01-15T08:12:12;11.2;;;4.41;;
64018;SDS011;66942;52.138;5.216;2024-01-15T08:15:26;11.3;;;3.9;;
64018;SDS011;66942;52.138;5.216;2024-01-15T08:17:03;9.4;;;4.2;;
64018;SDS011;66942;52.138;5.216;2024-01-15T08:18:41;10.5;;;4.41;;
64018;SDS011;66942;52.138;5.216;2024-01-15T08:21:54;7.7;;;3.9;;
64018;SDS011;66942;52.138;5.216;2024-01-15T08:23:32;9.5;;;3.3;;
64018;SDS011;66942;52.138;5.216;2024-01-15T08:25:11;9.31;;;3.4;;
64018;SDS011;66942;52.138;5.216;2024-01-15T08:26:48;10.21;;;4.61;;
64018;SDS011;66942;52.138;5.216;2024-01-15T08:30:01;7.9;;;3.0;;
64018;SDS011;66942;52.138;5.216;2024-01-15T08:31:38;5.7;;;2.21;;
64018;SDS011;66942;52.138;5.216;2024-01-15T08:33:14;5.7;;;2.21;;
64018;SDS011;66942;52.138;5.216;2024-01-15T08:36:27;8.6;;;2.5;;
64018;SDS011;66942;52.138;5.216;2024-01-15T08:38:04;5.8;;;2.0;;
64018;SDS011;66942;52.138;5.216;2024-01-15T08:39:41;9.9;;;2.6;;
64018;SDS011;66942;52.138;5.216;2024-01-15T08:42:54;6.2;;;2.31;;
64018;SDS011;66942;52.138;5.216;2024-01-15T08:44:30;10.0;;;2.8;;
64018;SDS011;66942;52.138;5.216;2024-01-15T08:46:06;7.5;;;2.9;;
64018;SDS011;66942;52.138;5.216;2024-01-15T08:47:43;10.9;;;2.6;;
64018;SDS011;66942;52.138;5.216;2024-01-15T08:50:58;9.81;;;2.6;;
64018;SDS011;66942;52.138;5.216;2024-01-15T08:52:35;10.1;;;6.1;;
64018;SDS011;66942;52.138;5.216;2024-01-15T08:54:12;13.9;;;6.9;;
64018;SDS011;66942;52.138;5.216;2024-01-15T08:57:25;11.2;;;5.6;;
64018;SDS011;66942;52.138;5.216;2024-01-15T08:59:01;11.6;;;6.2;;
64018;SDS011;66942;52.138;5.216;2024-01-15T09:00:37;12.2;;;3.0;;
64018;SDS011;66942;52.138;5.216;2024-01-15T09:02:14;12.7;;;3.2;;
64018;SDS011;66942;52.138;5.216;2024-01-15T09:05:27;8.5;;;2.31;;
64018;SDS011;66942;52.138;5.216;2024-01-15T09:07:05;10.3;;;2.8;;
64018;SDS011;66942;52.138;5.216;2024-01-15T09:08:42;7.7;;;2.1;;
64018;SDS011;66942;52.138;5.216;2024-01-15T09:11:57;7.3;;;2.1;;
64018;SDS011;66942;52.138;5.216;2024-01-15T09:13:34;5.5;;;1.9;;
64018;SDS011;66942;52.138;5.216;2024-01-15T09:15:11;8.4;;;2.31;;
64018;SDS011;66942;52.138;5.216;2024-01-15T09:18:25;6.4;;;3.2;;
64018;SDS011;66942;52.138;5.216;2024-01-15T09:20:01;8.2;;;3.0;;
64018;SDS011;66942;52.138;5.216;2024-01-15T09:21:38;6.0;;;2.21;;
64018;SDS011;66942;52.138;5.216;2024-01-15T09:23:16;6.6;;;1.8;;
64018;SDS011;66942;52.138;5.216;2024-01-15T09:26:29;7.2;;;1.7;;
64018;SDS011;66942;52.138;5.216;2024-01-15T09:28:06;8.0;;;2.0;;
64018;SDS011;66942;52.138;5.216;2024-01-15T09:29:43;6.8;;;1.8;;
64018;SDS011;66942;52.138;5.216;2024-01-15T09:32:57;8.0;;;2.0;;
64018;SDS011;66942;52.138;5.216;2024-01-15T09:34:33;6.1;;;1.6;;
64018;SDS011;66942;52.138;5.216;2024-01-15T09:36:10;8.81;;;1.9;;
64018;SDS011;66942;52.138;5.216;2024-01-15T09:39:24;7.4;;;1.9;;
64018;SDS011;66942;52.138;5.216;2024-01-15T09:41:02;9.81;;;2.1;;
64018;SDS011;66942;52.138;5.216;2024-01-15T09:42:39;8.0;;;1.7;;
64018;SDS011;66942;52.138;5.216;2024-01-15T09:44:17;6.9;;;1.9;;
64018;SDS011;66942;52.138;5.216;2024-01-15T09:47:33;6.3;;;2.4;;
64018;SDS011;66942;52.138;5.216;2024-01-15T09:49:10;7.8;;;2.0;;
64018;SDS011;66942;52.138;5.216;2024-01-15T09:50:46;11.0;;;2.31;;
64018;SDS011;66942;52.138;5.216;2024-01-15T09:54:02;8.31;;;2.21;;
64018;SDS011;66942;52.138;5.216;2024-01-15T09:55:39;11.1;;;2.8;;
64018;SDS011;66942;52.138;5.216;2024-01-15T09:57:16;11.8;;;2.7;;
64018;SDS011;66942;52.138;5.216;2024-01-15T09:58:53;9.0;;;2.5;;
64018;SDS011;66942;52.138;5.216;2024-01-15T10:02:09;9.9;;;2.9;;
64018;SDS011;66942;52.138;5.216;2024-01-15T10:03:49;11.7;;;2.9;;
64018;SDS011;66942;52.138;5.216;2024-01-15T10:05:26;6.6;;;2.21;;
64018;SDS011;66942;52.138;5.216;2024-01-15T10:08:43;11.9;;;3.4;;
64018;SDS011;66942;52.138;5.216;2024-01-15T10:10:23;8.81;;;3.2;;
64018;SDS011;66942;52.138;5.216;2024-01-15T10:12:00;9.0;;;3.0;;
64018;SDS011;66942;52.138;5.216;2024-01-15T10:13:37;9.6;;;3.0;;
64018;SDS011;66942;52.138;5.216;2024-01-15T10:16:52;12.4;;;3.0;;
64018;SDS011;66942;52.138;5.216;2024-01-15T10:18:29;10.3;;;3.0;;
64018;SDS011;66942;52.138;5.216;2024-01-15T10:20:07;11.7;;;3.0;;
64018;SDS011;66942;52.138;5.216;2024-01-15T10:21:45;9.0;;;2.5;;
64018;SDS011;66942;52.138;5.216;2024-01-15T10:24:58;7.9;;;2.5;;
64018;SDS011;66942;52.138;5.216;2024-01-15T10:26:35;6.3;;;2.5;;
64018;SDS011;66942;52.138;5.216;2024-01-15T10:28:13;9.5;;;3.0;;
64018;SDS011;66942;52.138;5.216;2024-01-15T10:31:25;9.6;;;2.7;;
64018;SDS011;66942;52.138;5.216;2024-01-15T10:33:03;8.71;;;2.8;;
64018;SDS011;66942;52.138;5.216;2024-01-15T10:34:40;9.6;;;2.9;;
64018;SDS011;66942;52.138;5.216;2024-01-15T10:37:54;7.8;;;2.4;;
64018;SDS011;66942;52.138;5.216;2024-01-15T10:39:30;10.0;;;2.9;;
64018;SDS011;66942;52.138;5.216;2024-01-15T10:41:07;8.81;;;2.9;;
64018;SDS011;66942;52.138;5.216;2024-01-15T10:42:44;10.21;;;3.0;;
64018;SDS011;66942;52.138;5.216;2024-01-15T10:45:58;8.2;;;2.4;;
64018;SDS011;66942;52.138;5.216;2024-01-15T10:47:35;10.21;;;2.5;;
64018;SDS011;66942;52.138;5.216;2024-01-15T10:49:12;9.31;;;2.4;;
64018;SDS011;66942;52.138;5.216;2024-01-15T10:52:26;8.0;;;2.8;;
64018;SDS011;66942;52.138;5.216;2024-01-15T10:54:06;7.9;;;2.6;;
64018;SDS011;66942;52.138;5.216;2024-01-15T10:55:45;7.9;;;2.6;;
64018;SDS011;66942;52.138;5.216;2024-01-15T10:57:23;8.9;;;2.8;;
64018;SDS011;66942;52.138;5.216;2024-01-15T11:00:39;6.0;;;1.8;;
64018;SDS011;66942;52.138;5.216;2024-01-15T11:02:16;11.3;;;2.5;;
64018;SDS011;66942;52.138;5.216;2024-01-15T11:03:54;8.6;;;2.5;;
64018;SDS011;66942;52.138;5.216;2024-01-15T11:07:13;11.3;;;2.7;;
64018;SDS011;66942;52.138;5.216;2024-01-15T11:08:50;8.2;;;2.7;;
64018;SDS011;66942;52.138;5.216;2024-01-15T11:10:40;12.2;;;2.6;;
64018;SDS011;66942;52.138;5.216;2024-01-15T11:12:17;9.0;;;2.6;;
64018;SDS011;66942;52.138;5.216;2024-01-15T11:15:31;9.5;;;2.31;;
64018;SDS011;66942;52.138;5.216;2024-01-15T11:17:08;8.6;;;2.5;;
64018;SDS011;66942;52.138;5.216;2024-01-15T11:19:01;5.9;;;1.9;;
64018;SDS011;66942;52.138;5.216;2024-01-15T11:20:38;7.0;;;2.1;;
64018;SDS011;66942;52.138;5.216;2024-01-15T11:24:33;4.3;;;1.4;;
64018;SDS011;66942;52.138;5.216;2024-01-15T11:26:43;4.3;;;1.4;;
64018;SDS011;66942;52.138;5.216;2024-01-15T11:28:46;5.11;;;1.5;;
64018;SDS011;66942;52.138;5.216;2024-01-15T11:30:24;5.5;;;1.5;;
64018;SDS011;66942;52.138;5.216;2024-01-15T11:32:02;4.5;;;1.3;;
64018;SDS011;66942;52.138;5.216;2024-01-15T11:33:47;5.8;;;1.4;;
64018;SDS011;66942;52.138;5.216;2024-01-15T11:35:26;3.7;;;1.11;;
64018;SDS011;66942;52.138;5.216;2024-01-15T11:37:25;4.91;;;1.3;;
64018;SDS011;66942;52.138;5.216;2024-01-15T11:41:16;4.61;;;1.2;;
64018;SDS011;66942;52.138;5.216;2024-01-15T11:44:29;4.3;;;2.21;;
64018;SDS011;66942;52.138;5.216;2024-01-15T11:46:08;5.2;;;1.7;;
64018;SDS011;66942;52.138;5.216;2024-01-15T11:47:58;5.2;;;1.7;;
64018;SDS011;66942;52.138;5.216;2024-01-15T11:49:59;6.2;;;1.8;;
64018;SDS011;66942;52.138;5.216;2024-01-15T11:53:17;4.5;;;1.9;;
64018;SDS011;66942;52.138;5.216;2024-01-15T11:54:59;3.9;;;1.5;;
64018;SDS011;66942;52.138;5.216;2024-01-15T11:56:42;5.8;;;2.21;;
64018;SDS011;66942;52.138;5.216;2024-01-15T11:58:19;4.91;;;1.9;;
64018;SDS011;66942;52.138;5.216;2024-01-15T12:01:33;4.7;;;1.9;;
64018;SDS011;66942;52.138;5.216;2024-01-15T12:03:09;4.2;;;1.6;;
64018;SDS011;66942;52.138;5.216;2024-01-15T12:04:46;7.1;;;1.9;;
64018;SDS011;66942;52.138;5.216;2024-01-15T12:06:24;5.11;;;1.8;;
64018;SDS011;66942;52.138;5.216;2024-01-15T12:09:42;7.2;;;2.1;;
64018;SDS011;66942;52.138;5.216;2024-01-15T12:11:19;7.2;;;1.6;;
64018;SDS011;66942;52.138;5.216;2024-01-15T12:13:00;6.3;;;2.21;;
64018;SDS011;66942;52.138;5.216;2024-01-15T12:16:17;5.4;;;2.1;;
64018;SDS011;66942;52.138;5.216;2024-01-15T12:17:54;5.2;;;2.1;;
64018;SDS011;66942;52.138;5.216;2024-01-15T12:19:31;5.4;;;3.4;;
64018;SDS011;66942;52.138;5.216;2024-01-15T12:21:07;6.4;;;2.31;;
64018;SDS011;66942;52.138;5.216;2024-01-15T12:24:21;3.9;;;1.8;;
64018;SDS011;66942;52.138;5.216;2024-01-15T12:25:58;4.3;;;1.8;;
64018;SDS011;66942;52.138;5.216;2024-01-15T12:27:34;4.0;;;1.8;;
64018;SDS011;66942;52.138;5.216;2024-01-15T12:30:47;5.7;;;1.7;;
64018;SDS011;66942;52.138;5.216;2024-01-15T12:32:23;7.5;;;2.5;;
64018;SDS011;66942;52.138;5.216;2024-01-15T12:34:01;7.4;;;2.6;;
64018;SDS011;66942;52.138;5.216;2024-01-15T12:35:37;5.11;;;3.0;;
64018;SDS011;66942;52.138;5.216;2024-01-15T12:38:49;3.1;;;1.6;;
64018;SDS011;66942;52.138;5.216;2024-01-15T12:40:25;3.8;;;1.5;;
64018;SDS011;66942;52.138;5.216;2024-01-15T12:42:01;4.41;;;1.3;;
64018;SDS011;66942;52.138;5.216;2024-01-15T12:45:14;3.5;;;1.4;;
64018;SDS011;66942;52.138;5.216;2024-01-15T12:46:50;4.7;;;1.6;;
64018;SDS011;66942;52.138;5.216;2024-01-15T12:48:27;6.9;;;1.7;;
64018;SDS011;66942;52.138;5.216;2024-01-15T12:51:42;4.3;;;1.6;;
64018;SDS011;66942;52.138;5.216;2024-01-15T12:53:18;4.3;;;1.4;;
64018;SDS011;66942;52.138;5.216;2024-01-15T12:54:54;7.1;;;1.8;;
64018;SDS011;66942;52.138;5.216;2024-01-15T12:58:07;6.0;;;1.6;;
64018;SDS011;66942;52.138;5.216;2024-01-15T12:59:43;5.3;;;1.4;;
64018;SDS011;66942;52.138;5.216;2024-01-15T13:01:21;5.2;;;1.6;;
64018;SDS011;66942;52.138;5.216;2024-01-15T13:02:57;5.3;;;1.7;;
64018;SDS011;66942;52.138;5.216;2024-01-15T13:06:09;6.7;;;3.5;;